Des Moines International Airport
KDSM : now visible

Airfield :











YOU CAN JOIN US ON...

 
LOGIN :

Register | Disclaimer

   EN    FR    IT 

 









Legend :    VFR   Marginal VFR   IFR   Intensive IFR   Very Intensive IFR
Visi :
Ceiling :
>= 8 km
>= 3000ft
5 to 8 km
1000 to 3000 ft
1500m to 5 km
500 to 1000 ft
800 to 1500m
200 to 500 ft
< 800m
< 200 ft
Symbols :   Thunderstorms  Fog  Heavy snow  Heavy precipitations  Wind > 20 kt






- Airport Elevation : 958 ft
- IATA code : DSM


KDSM - Des Moines International

CURRENT METAR :
  • 161254Z 36004KT 10SM SCT017 BKN190 OVC250 M08/M10 A3019 RMK AO2 SLP240 T10831100

EXPIRED METARs :
  • 161154Z 00000KT 10SM BKN019 M08/M11 A3020 RMK AO2 SLP242 4/001 60000 70004 T10781106 11072 21083 51035
  • 161054Z 31003KT 10SM BKN021 M08/M10 A3018 RMK AO2 SLP236 T10781100

TAF KDSM
Valid from the 16 at 13:00 until the 17 at 12:00 UTC


161235Z 1613/1712 VRB04KT P6SM BKN019 BKN060
FM161400 33004KT P6SM SCT025 BKN060
FM161700 34006KT P6SM BKN130



MET'MAP, your aeronautical weather chart ! - Copyright ORBIFLY December 2007 - Disclaimer

ORBIFLY MET'MAP TEAM :

Programming & Development : Alexandra Zaïnal
Concept & original design : Baudouin d'Aumeries
Assistance for programming : Marc-Olivier Méhu
Technical & hardware support : Manuel Goepfert

Contact : metmap@orbifly.com




SOURCES & CREDITS :

   NOAA       Earth
Advisory